Meteo Giornale » Osservazioni meteo Italia » Catania-Sigonella

ore: 15:55 - Osservazioni Meteo Catania-Sigonella
Lat. 37° 24' N Lon. 14° 55' E Alt. 22 metri s.l.m.

poco_nuvoloso Europe/Rome

19 °C

Poco Nuvoloso

Temp. 24 Ore

5 °C

22 °C

Est

25.9 Km/h

Dew point 4 °C

Umidità 37 %

Visibilità  10 Km

Il sole sorge alle ore 05:56

Il sole tramonta alle ore 18:16

Data e Ora Cielo e Fenomeni T °C DP °C Um. % Pres. hPa Vis. km Vento km/h
Oggi h: 15:55 poco_nuvoloso Poco Nuvoloso 19 4 37 1020 10 E 25.9
Oggi h: 14:55 poco_nuvoloso Poco Nuvoloso 20 6 39 1021 10 E 24
Oggi h: 13:55 poco_nuvoloso Poco Nuvoloso 20 5 37 1021 10 E 24
Oggi h: 12:55 sereno Sereno 22 4 30 1021 10 N 5.5
Oggi h: 11:55 sereno Sereno 21 4 32 1022 10 O/SO 7.4
Oggi h: 10:55 sereno Sereno 20 6 39 1022 10 N 5.5
Oggi h: 09:55 sereno Sereno 17 8 55 1022 10 O/NO 11.1
Oggi h: 08:55 sereno Sereno 13 9 76 1023 8 O 11.1
Oggi h: 07:55 sereno Sereno 10 9 93 1023 8 O 11.1
Oggi h: 06:55 sereno Sereno 5 5 100 1022 7 O/SO 9.3
Oggi h: 05:55 sereno Sereno 6 6 100 1022 8 O 9.3
Oggi h: 04:55 sereno Sereno 5 5 100 1022 8 O 11.1
Oggi h: 03:55 sereno Sereno 6 6 100 1022 10 O 9.3
Oggi h: 01:55 sereno Sereno 7 7 100 1022 10 O 11.1
Oggi h: 00:55 sereno Sereno 9 9 100 1022 10 O 11.1
Ieri h: 23:55 sereno Sereno 9 9 100 1022 10 O/NO 13
Ieri h: 22:55 sereno Sereno 8 8 100 1022 10 O 9.3
Ieri h: 21:55 sereno Sereno 8 8 100 1022 10 O 11.1
Ieri h: 20:55 sereno Sereno 11 11 100 1022 10 N 1.8
Ieri h: 19:55 sereno Sereno 12 12 100 1021 10 N 1.8
Ieri h: 18:55 sereno Sereno 12 12 100 1020 10 N 5.5
Ieri h: 17:55 sereno Sereno 13 11 87 1020 10 E 11.1
Ieri h: 16:55 poco_nuvoloso Poco Nuvoloso 15 11 76 1020 10 E 16.7